Carlsbad, NM

12:39 AM MST on February 27, 2015 (GMT -0700)
Cavern City | Change Station
CLOSE
Current Station
Airport
Location: Carlsbad,
Elevation: 3294 ft
Nearby Weather Stations
Active Advisory: Winter Weather Advisory

Elev 3294 ft 32.33 °N, 104.26 °W | Updated 46 minutes ago

Overcast
Overcast
28 °F
Feels Like 18 °F
N
12
Wind Variable Wind from SE

Today
High -- | Low -- °F
--% Chance of Precip.
Yesterday
High -- | Low -- °F
Precip. -- in
6:27 AM 5:52 PM
Waxing Gibbous, 66% visible
Pressure 30.22 in
Visibility 10.0 miles
Clouds Overcast 2400 ft
Windchill 18 °F
Dew Point 18 °F
Humidity 66%
Rainfall 0.00 in
Snow Depth Not available.
UV 0 out of 12
Pollen 4.60 out of 12
Air Quality Not available.
Flu Activity Not available.
METAR KCNM 270653Z AUTO 14010KT 10SM OVC024 M02/M08 A3020 RMK AO2 SLP231 T10221078 401061022

More Conditions Fewer Conditions

Pressure 30.22 in
Visibility 10.0 miles
Clouds Overcast 2400 ft
Windchill 18 °F
Dew Point 18 °F
Humidity 66%
Rainfall 0.00 in
Snow Depth Not available.
UV 0 out of 12
Pollen 4.60 out of 12
Air Quality Not available.
Flu Activity Not available.
METAR KCNM 270653Z AUTO 14010KT 10SM OVC024 M02/M08 A3020 RMK AO2 SLP231 T10221078 401061022

More Conditions Fewer Conditions

10-Day Weather Forecast

Almanac

Astronomy

Feb. 27, 2015 Rise Set
Actual Time
Civil Twilight
Nautical Twilight
Astronomical Twilight
Moon
Length of Visible Light
Length of Day
Tomorrow will be .
, % of the Moon is Illuminated

Today's Extremes

State Highs State Lows

Community

WunderPhotos

Upload Photos

1,800,646 photos uploaded!

WunderBlogs® & News

Nearby

Air Quality

  Air Quality AQ Index Pollutant
Not available.

Snow Depth

Station Depth Elevation

Earthquake Activity

City Distance Mag. Time & Date
Minimum magnitude displayed is 2.5.

Coastal Water Temperatures

Place Temperature

Nearby Weather Stations

Winter Weather Advisory
Statement as of 9:57 PM MST on February 26, 2015

... Winter Weather Advisory remains in effect until noon CST
/11 am MST/ Friday...

* event... moderate snow.

* Timing... 9 PM CST/8 PM MST this evening through noon CST /11
am MST Friday.

* Impacts... accumulating snow may result in slick and hazardous
roadways... particularly bridges and overpasses. Reductions in
visibility due to snow are also possible.

* Snow accumulations... 2 to 4 inches.

Precautionary/preparedness actions...

A Winter Weather Advisory for snow means that periods of snow
will cause primarily travel difficulties. Be prepared for snow
covered roads and limited visibilities... and use caution while
driving.